sensor_id;sensor_type;location;lat;lon;timestamp;pressure;altitude;pressure_sealevel;temperature;humidity
61408;BME280;47274;43.054;25.146;2023-08-07T00:01:33;94909.94;;;17.26;86.45
61408;BME280;47274;43.054;25.146;2023-08-07T00:04:01;94898.16;;;17.37;84.87
61408;BME280;47274;43.054;25.146;2023-08-07T00:06:27;94894.56;;;17.38;85.07
61408;BME280;47274;43.054;25.146;2023-08-07T00:08:53;94874.84;;;17.30;84.88
61408;BME280;47274;43.054;25.146;2023-08-07T00:11:18;94895.47;;;17.63;83.77
61408;BME280;47274;43.054;25.146;2023-08-07T00:13:44;94907.66;;;17.63;84.06
61408;BME280;47274;43.054;25.146;2023-08-07T00:16:10;94898.09;;;17.57;84.31
61408;BME280;47274;43.054;25.146;2023-08-07T00:18:36;94918.84;;;17.50;84.41
61408;BME280;47274;43.054;25.146;2023-08-07T00:21:02;94871.28;;;17.11;84.43
61408;BME280;47274;43.054;25.146;2023-08-07T00:23:30;94857.53;;;16.97;84.09
61408;BME280;47274;43.054;25.146;2023-08-07T00:25:56;94869.50;;;16.85;85.95
61408;BME280;47274;43.054;25.146;2023-08-07T00:28:25;94895.22;;;17.07;85.78
61408;BME280;47274;43.054;25.146;2023-08-07T00:30:51;94870.09;;;17.07;84.79
61408;BME280;47274;43.054;25.146;2023-08-07T00:33:16;94920.50;;;17.31;84.97
61408;BME280;47274;43.054;25.146;2023-08-07T00:35:42;94915.91;;;17.33;85.05
61408;BME280;47274;43.054;25.146;2023-08-07T00:38:08;94934.91;;;17.14;85.78
61408;BME280;47274;43.054;25.146;2023-08-07T00:40:40;94931.28;;;17.35;84.81
61408;BME280;47274;43.054;25.146;2023-08-07T00:43:06;94915.69;;;17.48;83.45
61408;BME280;47274;43.054;25.146;2023-08-07T00:45:41;94933.56;;;17.69;83.06
61408;BME280;47274;43.054;25.146;2023-08-07T00:48:07;94891.16;;;17.44;82.01
61408;BME280;47274;43.054;25.146;2023-08-07T00:50:33;94890.16;;;17.45;81.95
61408;BME280;47274;43.054;25.146;2023-08-07T00:53:02;94918.09;;;17.43;82.45
61408;BME280;47274;43.054;25.146;2023-08-07T00:55:28;94925.09;;;17.16;83.80
61408;BME280;47274;43.054;25.146;2023-08-07T00:57:57;94934.69;;;17.15;84.03
61408;BME280;47274;43.054;25.146;2023-08-07T01:00:28;94929.47;;;17.28;83.25
61408;BME280;47274;43.054;25.146;2023-08-07T01:02:56;94933.28;;;17.19;82.71
61408;BME280;47274;43.054;25.146;2023-08-07T01:05:24;94926.91;;;17.09;83.64
61408;BME280;47274;43.054;25.146;2023-08-07T01:07:53;94909.56;;;17.02;83.31
61408;BME280;47274;43.054;25.146;2023-08-07T01:10:29;94931.91;;;17.10;83.74
61408;BME280;47274;43.054;25.146;2023-08-07T01:13:05;94929.94;;;16.79;84.15
61408;BME280;47274;43.054;25.146;2023-08-07T01:15:33;94940.88;;;16.81;84.99
61408;BME280;47274;43.054;25.146;2023-08-07T01:18:00;94899.97;;;16.50;85.36
61408;BME280;47274;43.054;25.146;2023-08-07T01:20:27;94916.94;;;16.52;85.34
61408;BME280;47274;43.054;25.146;2023-08-07T01:22:52;94950.41;;;16.67;85.12
61408;BME280;47274;43.054;25.146;2023-08-07T01:25:18;94955.59;;;16.67;85.10
61408;BME280;47274;43.054;25.146;2023-08-07T01:27:56;94959.16;;;16.46;86.22
61408;BME280;47274;43.054;25.146;2023-08-07T01:30:47;94971.09;;;16.54;84.88
61408;BME280;47274;43.054;25.146;2023-08-07T01:33:40;94974.09;;;16.51;86.08
61408;BME280;47274;43.054;25.146;2023-08-07T01:36:09;94967.59;;;17.01;83.15
61408;BME280;47274;43.054;25.146;2023-08-07T06:20:57;95132.41;;;19.52;60.89
61408;BME280;47274;43.054;25.146;2023-08-07T15:04:00;95086.63;;;26.22;34.85
61408;BME280;47274;43.054;25.146;2023-08-07T15:06:26;95090.31;;;26.16;35.37
61408;BME280;47274;43.054;25.146;2023-08-07T15:08:52;95082.63;;;26.09;35.55
61408;BME280;47274;43.054;25.146;2023-08-07T15:11:34;95062.16;;;26.16;34.50
61408;BME280;47274;43.054;25.146;2023-08-07T15:14:00;95112.06;;;26.49;35.83
61408;BME280;47274;43.054;25.146;2023-08-07T15:16:30;95090.53;;;26.09;35.62
61408;BME280;47274;43.054;25.146;2023-08-07T15:18:56;95130.66;;;26.42;36.15
61408;BME280;47274;43.054;25.146;2023-08-07T15:21:22;95120.03;;;26.16;35.25
61408;BME280;47274;43.054;25.146;2023-08-07T15:23:48;95062.25;;;25.57;35.78
61408;BME280;47274;43.054;25.146;2023-08-07T15:26:14;95089.56;;;25.51;35.02
61408;BME280;47274;43.054;25.146;2023-08-07T15:28:40;95069.38;;;25.24;36.67
61408;BME280;47274;43.054;25.146;2023-08-07T15:31:15;95094.97;;;25.39;36.24
61408;BME280;47274;43.054;25.146;2023-08-07T15:33:41;95057.56;;;25.00;36.33
61408;BME280;47274;43.054;25.146;2023-08-07T15:36:12;95126.94;;;25.31;36.70
61408;BME280;47274;43.054;25.146;2023-08-07T15:38:38;95078.78;;;24.98;36.82
61408;BME280;47274;43.054;25.146;2023-08-07T15:41:04;95087.81;;;24.80;37.48
61408;BME280;47274;43.054;25.146;2023-08-07T15:43:30;95065.53;;;24.61;37.56
61408;BME280;47274;43.054;25.146;2023-08-07T15:45:58;95066.47;;;24.50;38.37
61408;BME280;47274;43.054;25.146;2023-08-07T15:48:27;95092.69;;;24.50;37.83
61408;BME280;47274;43.054;25.146;2023-08-07T15:50:55;95064.50;;;24.40;38.02
61408;BME280;47274;43.054;25.146;2023-08-07T15:53:22;95076.28;;;24.38;38.39
61408;BME280;47274;43.054;25.146;2023-08-07T15:55:48;95071.03;;;24.38;38.22
61408;BME280;47274;43.054;25.146;2023-08-07T15:58:14;95102.97;;;24.51;38.53
61408;BME280;47274;43.054;25.146;2023-08-07T16:00:42;95070.50;;;24.19;39.04
61408;BME280;47274;43.054;25.146;2023-08-07T16:03:11;95085.44;;;24.18;39.21
61408;BME280;47274;43.054;25.146;2023-08-07T16:05:38;95110.94;;;24.23;39.72
61408;BME280;47274;43.054;25.146;2023-08-07T16:08:05;95136.97;;;24.29;39.49
61408;BME280;47274;43.054;25.146;2023-08-07T16:10:32;95082.06;;;24.01;39.43
61408;BME280;47274;43.054;25.146;2023-08-07T16:12:58;95087.38;;;23.89;39.55
61408;BME280;47274;43.054;25.146;2023-08-07T16:15:24;95116.50;;;24.09;39.72
61408;BME280;47274;43.054;25.146;2023-08-07T16:17:51;95093.63;;;23.83;39.58
61408;BME280;47274;43.054;25.146;2023-08-07T16:20:19;95098.84;;;23.83;39.74
61408;BME280;47274;43.054;25.146;2023-08-07T16:22:48;95102.25;;;23.83;39.43
61408;BME280;47274;43.054;25.146;2023-08-07T16:25:14;95153.16;;;24.04;39.94
61408;BME280;47274;43.054;25.146;2023-08-07T16:27:40;95114.41;;;23.73;40.15
61408;BME280;47274;43.054;25.146;2023-08-07T16:30:09;95137.44;;;23.71;40.56
61408;BME280;47274;43.054;25.146;2023-08-07T16:32:40;95159.03;;;23.78;40.66
61408;BME280;47274;43.054;25.146;2023-08-07T16:35:08;95164.00;;;23.79;40.69
61408;BME280;47274;43.054;25.146;2023-08-07T16:37:34;95145.41;;;23.64;41.04
61408;BME280;47274;43.054;25.146;2023-08-07T16:40:05;95162.72;;;23.65;40.65
61408;BME280;47274;43.054;25.146;2023-08-07T16:42:42;95112.38;;;23.29;40.94
61408;BME280;47274;43.054;25.146;2023-08-07T16:45:08;95135.47;;;23.32;41.25
61408;BME280;47274;43.054;25.146;2023-08-07T16:47:36;95170.41;;;23.55;41.27
61408;BME280;47274;43.054;25.146;2023-08-07T16:50:06;95192.25;;;23.60;41.12
61408;BME280;47274;43.054;25.146;2023-08-07T16:52:40;95115.81;;;23.01;41.73
61408;BME280;47274;43.054;25.146;2023-08-07T16:55:46;95149.63;;;23.20;41.23
61408;BME280;47274;43.054;25.146;2023-08-07T16:58:15;95123.06;;;22.99;41.68
61408;BME280;47274;43.054;25.146;2023-08-07T17:00:43;95148.31;;;23.05;41.79
61408;BME280;47274;43.054;25.146;2023-08-07T17:03:08;95147.97;;;22.90;42.16
61408;BME280;47274;43.054;25.146;2023-08-07T17:05:38;95207.25;;;23.08;42.59
61408;BME280;47274;43.054;25.146;2023-08-07T17:08:04;95167.50;;;22.70;42.56
61408;BME280;47274;43.054;25.146;2023-08-07T17:10:30;95120.13;;;22.32;42.67
61408;BME280;47274;43.054;25.146;2023-08-07T17:13:01;95130.50;;;22.27;43.05
61408;BME280;47274;43.054;25.146;2023-08-07T17:15:29;95176.97;;;22.48;42.75
61408;BME280;47274;43.054;25.146;2023-08-07T17:17:55;95208.56;;;22.58;43.15
61408;BME280;47274;43.054;25.146;2023-08-07T17:20:22;95153.69;;;22.23;43.55
61408;BME280;47274;43.054;25.146;2023-08-07T17:22:48;95138.41;;;22.08;42.85
61408;BME280;47274;43.054;25.146;2023-08-07T17:25:14;95211.53;;;22.38;43.11
61408;BME280;47274;43.054;25.146;2023-08-07T17:27:42;95163.41;;;22.04;43.76
61408;BME280;47274;43.054;25.146;2023-08-07T17:30:08;95144.00;;;21.88;42.94
61408;BME280;47274;43.054;25.146;2023-08-07T17:32:34;95155.22;;;21.89;43.78
61408;BME280;47274;43.054;25.146;2023-08-07T17:35:02;95218.34;;;22.39;44.09
61408;BME280;47274;43.054;25.146;2023-08-07T17:37:37;95179.31;;;22.14;44.68
61408;BME280;47274;43.054;25.146;2023-08-07T17:40:04;95222.66;;;22.34;43.60
61408;BME280;47274;43.054;25.146;2023-08-07T17:42:33;95219.03;;;22.35;44.51
61408;BME280;47274;43.054;25.146;2023-08-07T17:44:59;95215.16;;;22.26;43.70
61408;BME280;47274;43.054;25.146;2023-08-07T17:47:27;95184.53;;;21.91;44.49
61408;BME280;47274;43.054;25.146;2023-08-07T17:49:53;95151.69;;;21.71;44.72
61408;BME280;47274;43.054;25.146;2023-08-07T17:52:19;95218.69;;;22.19;44.84
61408;BME280;47274;43.054;25.146;2023-08-07T17:54:46;95195.25;;;22.13;44.98
61408;BME280;47274;43.054;25.146;2023-08-07T17:57:16;95206.31;;;22.27;45.27
61408;BME280;47274;43.054;25.146;2023-08-07T17:59:42;95182.50;;;21.93;44.80
61408;BME280;47274;43.054;25.146;2023-08-07T18:02:08;95139.47;;;21.53;44.65
61408;BME280;47274;43.054;25.146;2023-08-07T18:04:59;95130.75;;;21.48;44.72
61408;BME280;47274;43.054;25.146;2023-08-07T18:07:25;95169.13;;;21.59;43.71
61408;BME280;47274;43.054;25.146;2023-08-07T18:09:51;95165.34;;;21.43;45.37
61408;BME280;47274;43.054;25.146;2023-08-07T18:12:18;95175.13;;;21.48;45.07
61408;BME280;47274;43.054;25.146;2023-08-07T18:14:44;95227.69;;;21.82;44.44
61408;BME280;47274;43.054;25.146;2023-08-07T18:17:13;95145.81;;;21.34;45.21
61408;BME280;47274;43.054;25.146;2023-08-07T18:19:39;95154.72;;;21.57;45.03
61408;BME280;47274;43.054;25.146;2023-08-07T18:22:07;95200.88;;;21.98;44.98
61408;BME280;47274;43.054;25.146;2023-08-07T18:24:33;95236.06;;;22.26;46.10
61408;BME280;47274;43.054;25.146;2023-08-07T18:27:01;95160.78;;;21.81;45.45
61408;BME280;47274;43.054;25.146;2023-08-07T18:29:30;95190.78;;;21.90;45.24
61408;BME280;47274;43.054;25.146;2023-08-07T18:31:55;95165.75;;;21.70;45.30
61408;BME280;47274;43.054;25.146;2023-08-07T18:34:24;95161.34;;;21.71;45.15
61408;BME280;47274;43.054;25.146;2023-08-07T18:36:52;95171.41;;;21.67;46.13
61408;BME280;47274;43.054;25.146;2023-08-07T18:39:19;95182.69;;;21.80;45.86
61408;BME280;47274;43.054;25.146;2023-08-07T18:41:48;95184.28;;;21.81;45.29
61408;BME280;47274;43.054;25.146;2023-08-07T18:44:17;95174.97;;;21.73;45.20
61408;BME280;47274;43.054;25.146;2023-08-07T18:46:46;95176.44;;;21.69;45.45
61408;BME280;47274;43.054;25.146;2023-08-07T18:49:12;95171.66;;;21.66;45.75
61408;BME280;47274;43.054;25.146;2023-08-07T18:51:40;95169.84;;;21.66;45.53
61408;BME280;47274;43.054;25.146;2023-08-07T18:54:06;95198.03;;;21.76;45.61
61408;BME280;47274;43.054;25.146;2023-08-07T18:56:32;95230.53;;;21.92;45.33
61408;BME280;47274;43.054;25.146;2023-08-07T18:58:57;95263.28;;;22.06;45.62
61408;BME280;47274;43.054;25.146;2023-08-07T19:01:23;95256.22;;;21.95;45.60
61408;BME280;47274;43.054;25.146;2023-08-07T19:03:49;95270.78;;;22.03;45.47
61408;BME280;47274;43.054;25.146;2023-08-07T19:06:15;95235.16;;;21.78;45.33
61408;BME280;47274;43.054;25.146;2023-08-07T19:08:41;95235.03;;;21.73;46.03
61408;BME280;47274;43.054;25.146;2023-08-07T19:11:09;95239.38;;;21.79;45.74
61408;BME280;47274;43.054;25.146;2023-08-07T19:13:38;95227.44;;;21.71;45.64
61408;BME280;47274;43.054;25.146;2023-08-07T19:16:04;95248.78;;;21.80;45.44
61408;BME280;47274;43.054;25.146;2023-08-07T19:18:38;95227.69;;;21.51;46.23
61408;BME280;47274;43.054;25.146;2023-08-07T19:21:07;95213.00;;;21.39;46.10
61408;BME280;47274;43.054;25.146;2023-08-07T19:23:58;95300.50;;;21.90;45.78
61408;BME280;47274;43.054;25.146;2023-08-07T19:26:49;95253.94;;;21.57;45.69
61408;BME280;47274;43.054;25.146;2023-08-07T19:29:40;95295.59;;;21.82;45.78
61408;BME280;47274;43.054;25.146;2023-08-07T19:32:31;95262.56;;;21.57;45.31
61408;BME280;47274;43.054;25.146;2023-08-07T19:34:57;95238.44;;;21.43;45.47
61408;BME280;47274;43.054;25.146;2023-08-07T19:37:23;95293.19;;;21.80;45.97
61408;BME280;47274;43.054;25.146;2023-08-07T19:39:51;95287.34;;;21.66;45.69
61408;BME280;47274;43.054;25.146;2023-08-07T19:42:17;95221.91;;;21.31;46.04
61408;BME280;47274;43.054;25.146;2023-08-07T19:44:43;95268.53;;;21.76;45.99
61408;BME280;47274;43.054;25.146;2023-08-07T19:47:14;95231.41;;;21.44;45.88
61408;BME280;47274;43.054;25.146;2023-08-07T19:49:41;95247.00;;;21.50;45.71
61408;BME280;47274;43.054;25.146;2023-08-07T19:52:10;95243.47;;;21.57;45.06
61408;BME280;47274;43.054;25.146;2023-08-07T19:54:37;95243.81;;;21.48;46.04
61408;BME280;47274;43.054;25.146;2023-08-07T19:57:03;95218.91;;;21.34;46.07
61408;BME280;47274;43.054;25.146;2023-08-07T19:59:31;95241.97;;;21.49;45.89
61408;BME280;47274;43.054;25.146;2023-08-07T20:02:05;95257.56;;;21.56;46.20
61408;BME280;47274;43.054;25.146;2023-08-07T20:04:35;95218.72;;;21.29;46.41
61408;BME280;47274;43.054;25.146;2023-08-07T20:07:01;95290.81;;;21.79;46.01
61408;BME280;47274;43.054;25.146;2023-08-07T20:09:30;95208.16;;;21.24;46.19
61408;BME280;47274;43.054;25.146;2023-08-07T20:12:05;95218.00;;;21.22;46.58
61408;BME280;47274;43.054;25.146;2023-08-07T20:14:32;95215.41;;;21.22;46.31
61408;BME280;47274;43.054;25.146;2023-08-07T20:17:04;95238.88;;;21.22;47.30
61408;BME280;47274;43.054;25.146;2023-08-07T20:19:31;95245.88;;;21.10;46.62
61408;BME280;47274;43.054;25.146;2023-08-07T20:21:58;95230.19;;;20.91;47.29
61408;BME280;47274;43.054;25.146;2023-08-07T20:24:25;95260.69;;;21.09;46.92
61408;BME280;47274;43.054;25.146;2023-08-07T20:26:54;95220.13;;;20.76;47.58
61408;BME280;47274;43.054;25.146;2023-08-07T20:29:24;95239.63;;;20.74;47.58
61408;BME280;47274;43.054;25.146;2023-08-07T20:31:53;95224.28;;;20.66;47.97
61408;BME280;47274;43.054;25.146;2023-08-07T20:34:26;95253.56;;;20.61;48.37
61408;BME280;47274;43.054;25.146;2023-08-07T20:36:52;95282.47;;;20.59;48.13
61408;BME280;47274;43.054;25.146;2023-08-07T20:39:20;95284.66;;;20.06;49.34
61408;BME280;47274;43.054;25.146;2023-08-07T20:41:51;95332.41;;;20.31;50.75
61408;BME280;47274;43.054;25.146;2023-08-07T20:44:19;95270.44;;;20.08;50.10
61408;BME280;47274;43.054;25.146;2023-08-07T20:46:50;95286.72;;;20.29;49.55
61408;BME280;47274;43.054;25.146;2023-08-07T20:49:22;95284.25;;;20.34;48.99
61408;BME280;47274;43.054;25.146;2023-08-07T20:51:48;95347.56;;;20.73;49.02
61408;BME280;47274;43.054;25.146;2023-08-07T20:54:17;95367.22;;;20.94;49.39
61408;BME280;47274;43.054;25.146;2023-08-07T20:56:46;95328.44;;;20.79;49.18
61408;BME280;47274;43.054;25.146;2023-08-07T20:59:15;95326.25;;;20.76;49.20
61408;BME280;47274;43.054;25.146;2023-08-07T21:01:41;95293.56;;;20.55;49.26
61408;BME280;47274;43.054;25.146;2023-08-07T21:04:10;95304.06;;;20.42;49.32
61408;BME280;47274;43.054;25.146;2023-08-07T21:06:41;95307.84;;;20.21;49.90
61408;BME280;47274;43.054;25.146;2023-08-07T21:09:18;95354.41;;;20.10;51.43
61408;BME280;47274;43.054;25.146;2023-08-07T21:11:46;95338.88;;;19.32;53.02
61408;BME280;47274;43.054;25.146;2023-08-07T21:14:12;95357.03;;;19.52;53.67
61408;BME280;47274;43.054;25.146;2023-08-07T21:16:38;95341.53;;;19.12;54.26
61408;BME280;47274;43.054;25.146;2023-08-07T21:19:04;95330.78;;;18.89;56.53
61408;BME280;47274;43.054;25.146;2023-08-07T21:21:33;95371.38;;;18.83;58.20
61408;BME280;47274;43.054;25.146;2023-08-07T21:23:59;95374.78;;;18.84;57.52
61408;BME280;47274;43.054;25.146;2023-08-07T21:26:27;95421.94;;;19.21;58.79
61408;BME280;47274;43.054;25.146;2023-08-07T21:28:53;95363.19;;;18.80;58.01
61408;BME280;47274;43.054;25.146;2023-08-07T21:31:19;95375.38;;;18.92;57.53
61408;BME280;47274;43.054;25.146;2023-08-07T21:33:45;95364.56;;;19.09;56.73
61408;BME280;47274;43.054;25.146;2023-08-07T21:36:11;95390.31;;;19.30;59.01
61408;BME280;47274;43.054;25.146;2023-08-07T21:38:37;95429.34;;;19.37;62.51
61408;BME280;47274;43.054;25.146;2023-08-07T21:41:02;95419.56;;;19.12;60.58
61408;BME280;47274;43.054;25.146;2023-08-07T21:43:28;95371.19;;;18.72;60.69
61408;BME280;47274;43.054;25.146;2023-08-07T21:45:57;95407.38;;;18.86;62.11
61408;BME280;47274;43.054;25.146;2023-08-07T21:48:23;95421.78;;;19.15;66.68
61408;BME280;47274;43.054;25.146;2023-08-07T21:50:49;95420.59;;;18.91;66.53
61408;BME280;47274;43.054;25.146;2023-08-07T21:53:15;95387.13;;;18.42;68.17
61408;BME280;47274;43.054;25.146;2023-08-07T21:55:41;95372.34;;;18.42;65.94
61408;BME280;47274;43.054;25.146;2023-08-07T21:58:07;95390.34;;;18.57;67.34
61408;BME280;47274;43.054;25.146;2023-08-07T22:00:33;95414.94;;;18.61;69.27
61408;BME280;47274;43.054;25.146;2023-08-07T22:02:59;95431.78;;;18.92;71.24
61408;BME280;47274;43.054;25.146;2023-08-07T22:05:25;95357.13;;;18.19;72.54
61408;BME280;47274;43.054;25.146;2023-08-07T22:07:51;95412.88;;;18.23;76.09
61408;BME280;47274;43.054;25.146;2023-08-07T22:10:23;95414.97;;;17.87;77.53
61408;BME280;47274;43.054;25.146;2023-08-07T22:12:49;95386.31;;;17.73;78.04
61408;BME280;47274;43.054;25.146;2023-08-07T22:15:15;95433.66;;;18.17;74.67
61408;BME280;47274;43.054;25.146;2023-08-07T22:17:41;95467.81;;;18.20;78.76
61408;BME280;47274;43.054;25.146;2023-08-07T22:20:08;95473.59;;;18.09;79.97
61408;BME280;47274;43.054;25.146;2023-08-07T22:22:34;95426.06;;;17.74;79.09
61408;BME280;47274;43.054;25.146;2023-08-07T22:25:00;95426.41;;;17.58;79.21
61408;BME280;47274;43.054;25.146;2023-08-07T22:27:29;95395.97;;;17.80;77.65
61408;BME280;47274;43.054;25.146;2023-08-07T22:29:57;95410.47;;;18.22;72.16
